sensor_id;sensor_type;location;lat;lon;timestamp;pressure;altitude;pressure_sealevel;temperature;humidity
51928;BME280;37953;52.806;18.270;2022-12-18T00:01:03;102143.28;;;-1.90;100.00
51928;BME280;37953;52.806;18.270;2022-12-18T00:03:43;102144.66;;;-1.83;100.00
51928;BME280;37953;52.806;18.270;2022-12-18T00:06:09;102137.19;;;-1.92;100.00
51928;BME280;37953;52.806;18.270;2022-12-18T00:08:35;102141.91;;;-1.96;100.00
51928;BME280;37953;52.806;18.270;2022-12-18T00:11:05;102151.09;;;-1.98;100.00
51928;BME280;37953;52.806;18.270;2022-12-18T00:13:31;102150.22;;;-1.99;100.00
51928;BME280;37953;52.806;18.270;2022-12-18T00:16:06;102149.94;;;-2.02;100.00
51928;BME280;37953;52.806;18.270;2022-12-18T00:18:32;102155.16;;;-2.00;100.00
51928;BME280;37953;52.806;18.270;2022-12-18T00:21:03;102155.16;;;-2.00;100.00
51928;BME280;37953;52.806;18.270;2022-12-18T00:23:30;102153.38;;;-2.01;100.00
51928;BME280;37953;52.806;18.270;2022-12-18T00:26:01;102153.38;;;-2.01;100.00
51928;BME280;37953;52.806;18.270;2022-12-18T00:28:28;102146.53;;;-2.02;100.00
51928;BME280;37953;52.806;18.270;2022-12-18T00:31:22;102144.84;;;-2.02;100.00
51928;BME280;37953;52.806;18.270;2022-12-18T00:33:49;102141.16;;;-2.06;100.00
51928;BME280;37953;52.806;18.270;2022-12-18T00:36:17;102151.63;;;-2.02;100.00
51928;BME280;37953;52.806;18.270;2022-12-18T00:38:47;102156.69;;;-2.02;100.00
51928;BME280;37953;52.806;18.270;2022-12-18T00:41:15;102176.19;;;-2.03;100.00
51928;BME280;37953;52.806;18.270;2022-12-18T00:44:01;102179.50;;;-2.04;100.00
51928;BME280;37953;52.806;18.270;2022-12-18T00:46:27;102189.53;;;-2.06;100.00
51928;BME280;37953;52.806;18.270;2022-12-18T00:48:56;102189.53;;;-2.06;100.00
51928;BME280;37953;52.806;18.270;2022-12-18T00:51:23;102188.66;;;-2.06;100.00
51928;BME280;37953;52.806;18.270;2022-12-18T00:53:49;102204.81;;;-2.06;100.00
51928;BME280;37953;52.806;18.270;2022-12-18T00:56:15;102202.19;;;-2.07;100.00
51928;BME280;37953;52.806;18.270;2022-12-18T00:58:41;102195.03;;;-2.11;100.00
51928;BME280;37953;52.806;18.270;2022-12-18T01:01:07;102203.81;;;-2.08;100.00
51928;BME280;37953;52.806;18.270;2022-12-18T01:03:34;102202.69;;;-2.11;100.00
51928;BME280;37953;52.806;18.270;2022-12-18T01:06:09;102208.00;;;-2.08;100.00
51928;BME280;37953;52.806;18.270;2022-12-18T01:08:36;102223.16;;;-2.10;100.00
51928;BME280;37953;52.806;18.270;2022-12-18T01:11:11;102208.00;;;-2.08;100.00
51928;BME280;37953;52.806;18.270;2022-12-18T01:13:38;102209.69;;;-2.09;100.00
51928;BME280;37953;52.806;18.270;2022-12-18T01:16:07;102213.88;;;-2.09;100.00
51928;BME280;37953;52.806;18.270;2022-12-18T01:18:34;102227.50;;;-2.09;100.00
51928;BME280;37953;52.806;18.270;2022-12-18T01:21:05;102226.72;;;-2.08;100.00
51928;BME280;37953;52.806;18.270;2022-12-18T01:23:31;102232.09;;;-2.05;100.00
51928;BME280;37953;52.806;18.270;2022-12-18T01:25:57;102223.44;;;-2.07;100.00
51928;BME280;37953;52.806;18.270;2022-12-18T01:28:23;102221.91;;;-2.05;100.00
51928;BME280;37953;52.806;18.270;2022-12-18T01:30:49;102217.69;;;-2.04;100.00
51928;BME280;37953;52.806;18.270;2022-12-18T01:33:15;102236.41;;;-2.03;100.00
51928;BME280;37953;52.806;18.270;2022-12-18T01:35:42;102234.75;;;-2.03;100.00
51928;BME280;37953;52.806;18.270;2022-12-18T01:38:14;102234.75;;;-2.03;100.00
51928;BME280;37953;52.806;18.270;2022-12-18T01:40:40;102245.97;;;-2.01;100.00
51928;BME280;37953;52.806;18.270;2022-12-18T01:43:09;102241.75;;;-2.00;100.00
51928;BME280;37953;52.806;18.270;2022-12-18T01:45:35;102240.09;;;-2.00;100.00
51928;BME280;37953;52.806;18.270;2022-12-18T01:48:06;102248.75;;;-1.98;100.00
51928;BME280;37953;52.806;18.270;2022-12-18T01:50:43;102247.09;;;-1.97;100.00
51928;BME280;37953;52.806;18.270;2022-12-18T01:53:18;102252.19;;;-1.97;100.00
51928;BME280;37953;52.806;18.270;2022-12-18T01:55:48;102251.31;;;-1.98;100.00
51928;BME280;37953;52.806;18.270;2022-12-18T01:58:15;102247.22;;;-1.96;100.00
51928;BME280;37953;52.806;18.270;2022-12-18T02:00:41;102249.78;;;-1.96;100.00
51928;BME280;37953;52.806;18.270;2022-12-18T02:03:07;102253.19;;;-1.95;100.00
51928;BME280;37953;52.806;18.270;2022-12-18T02:05:58;102256.00;;;-1.92;100.00
51928;BME280;37953;52.806;18.270;2022-12-18T02:14:35;102250.91;;;-1.92;100.00
51928;BME280;37953;52.806;18.270;2022-12-18T02:17:23;102249.13;;;-1.93;100.00
51928;BME280;37953;52.806;18.270;2022-12-18T02:27:59;102260.69;;;-1.87;100.00
51928;BME280;37953;52.806;18.270;2022-12-18T02:30:27;102257.91;;;-1.90;100.00
51928;BME280;37953;52.806;18.270;2022-12-18T02:32:56;102248.38;;;-1.92;100.00
51928;BME280;37953;52.806;18.270;2022-12-18T02:35:26;102264.66;;;-1.90;100.00
51928;BME280;37953;52.806;18.270;2022-12-18T02:37:56;102260.31;;;-1.91;100.00
51928;BME280;37953;52.806;18.270;2022-12-18T02:40:25;102275.59;;;-1.91;100.00
51928;BME280;37953;52.806;18.270;2022-12-18T02:42:52;102273.06;;;-1.91;100.00
51928;BME280;37953;52.806;18.270;2022-12-18T02:45:18;102281.59;;;-1.91;100.00
51928;BME280;37953;52.806;18.270;2022-12-18T02:47:46;102287.47;;;-1.92;100.00
51928;BME280;37953;52.806;18.270;2022-12-18T02:50:36;102300.34;;;-1.90;100.00
51928;BME280;37953;52.806;18.270;2022-12-18T02:53:33;102291.78;;;-1.91;100.00
51928;BME280;37953;52.806;18.270;2022-12-18T03:04:19;102312.06;;;-1.92;100.00
51928;BME280;37953;52.806;18.270;2022-12-18T03:07:06;102301.72;;;-1.94;100.00
51928;BME280;37953;52.806;18.270;2022-12-18T03:09:37;102288.84;;;-1.95;100.00
51928;BME280;37953;52.806;18.270;2022-12-18T03:12:27;102292.56;;;-1.92;100.00
51928;BME280;37953;52.806;18.270;2022-12-18T03:15:03;102300.06;;;-1.93;100.00
51928;BME280;37953;52.806;18.270;2022-12-18T03:17:32;102318.78;;;-1.93;100.00
51928;BME280;37953;52.806;18.270;2022-12-18T03:20:04;102321.31;;;-1.93;100.00
51928;BME280;37953;52.806;18.270;2022-12-18T03:22:33;102324.78;;;-1.92;100.00
51928;BME280;37953;52.806;18.270;2022-12-18T03:25:04;102318.78;;;-1.93;100.00
51928;BME280;37953;52.806;18.270;2022-12-18T03:27:32;102321.47;;;-1.91;100.00
51928;BME280;37953;52.806;18.270;2022-12-18T03:30:04;102321.47;;;-1.91;100.00
51928;BME280;37953;52.806;18.270;2022-12-18T03:32:58;102332.66;;;-1.89;100.00
51928;BME280;37953;52.806;18.270;2022-12-18T03:35:29;102340.31;;;-1.89;100.00
51928;BME280;37953;52.806;18.270;2022-12-18T03:37:56;102336.00;;;-1.90;100.00
51928;BME280;37953;52.806;18.270;2022-12-18T03:40:29;102342.84;;;-1.89;100.00
51928;BME280;37953;52.806;18.270;2022-12-18T03:46:41;102341.31;;;-1.87;100.00
51928;BME280;37953;52.806;18.270;2022-12-18T03:49:12;102344.66;;;-1.88;100.00
51928;BME280;37953;52.806;18.270;2022-12-18T03:52:12;102350.78;;;-1.86;100.00
51928;BME280;37953;52.806;18.270;2022-12-18T03:54:41;102353.94;;;-1.89;100.00
51928;BME280;37953;52.806;18.270;2022-12-18T03:57:17;102354.84;;;-1.88;100.00
51928;BME280;37953;52.806;18.270;2022-12-18T03:59:46;102345.25;;;-1.91;100.00
51928;BME280;37953;52.806;18.270;2022-12-18T04:02:19;102359.81;;;-1.90;100.00
51928;BME280;37953;52.806;18.270;2022-12-18T04:04:47;102363.88;;;-1.92;100.00
51928;BME280;37953;52.806;18.270;2022-12-18T04:07:16;102362.22;;;-1.91;100.00
51928;BME280;37953;52.806;18.270;2022-12-18T04:09:43;102360.53;;;-1.91;100.00
51928;BME280;37953;52.806;18.270;2022-12-18T04:12:11;102360.53;;;-1.91;100.00
51928;BME280;37953;52.806;18.270;2022-12-18T04:14:37;102366.56;;;-1.90;100.00
51928;BME280;37953;52.806;18.270;2022-12-18T04:17:03;102383.47;;;-1.91;100.00
51928;BME280;37953;52.806;18.270;2022-12-18T04:19:29;102377.63;;;-1.90;100.00
51928;BME280;37953;52.806;18.270;2022-12-18T04:21:55;102376.75;;;-1.90;100.00
51928;BME280;37953;52.806;18.270;2022-12-18T04:24:21;102377.75;;;-1.88;100.00
51928;BME280;37953;52.806;18.270;2022-12-18T04:26:48;102381.94;;;-1.89;100.00
51928;BME280;37953;52.806;18.270;2022-12-18T04:29:14;102374.31;;;-1.89;100.00
51928;BME280;37953;52.806;18.270;2022-12-18T04:31:40;102379.41;;;-1.89;100.00
51928;BME280;37953;52.806;18.270;2022-12-18T04:34:06;102384.63;;;-1.87;100.00
51928;BME280;37953;52.806;18.270;2022-12-18T04:36:32;102388.06;;;-1.87;100.00
51928;BME280;37953;52.806;18.270;2022-12-18T04:38:58;102380.41;;;-1.87;100.00
51928;BME280;37953;52.806;18.270;2022-12-18T04:41:24;102391.53;;;-1.86;100.00
51928;BME280;37953;52.806;18.270;2022-12-18T04:43:50;102397.50;;;-1.86;100.00
51928;BME280;37953;52.806;18.270;2022-12-18T04:46:16;102406.03;;;-1.85;100.00
51928;BME280;37953;52.806;18.270;2022-12-18T04:48:45;102404.25;;;-1.86;100.00
51928;BME280;37953;52.806;18.270;2022-12-18T04:51:11;102405.88;;;-1.87;100.00
51928;BME280;37953;52.806;18.270;2022-12-18T04:53:37;102406.66;;;-1.88;100.00
51928;BME280;37953;52.806;18.270;2022-12-18T04:56:09;102402.31;;;-1.89;100.00
51928;BME280;37953;52.806;18.270;2022-12-18T04:58:37;102413.16;;;-1.91;100.00
51928;BME280;37953;52.806;18.270;2022-12-18T05:01:10;102421.56;;;-1.92;100.00
51928;BME280;37953;52.806;18.270;2022-12-18T05:03:37;102425.50;;;-1.96;100.00
51928;BME280;37953;52.806;18.270;2022-12-18T05:06:04;102421.06;;;-1.98;100.00
51928;BME280;37953;52.806;18.270;2022-12-18T05:08:31;102424.34;;;-1.99;100.00
51928;BME280;37953;52.806;18.270;2022-12-18T05:11:04;102415.81;;;-2.00;100.00
51928;BME280;37953;52.806;18.270;2022-12-18T05:13:31;102415.56;;;-2.03;100.00
51928;BME280;37953;52.806;18.270;2022-12-18T05:15:57;102425.13;;;-2.00;100.00
51928;BME280;37953;52.806;18.270;2022-12-18T05:18:24;102426.66;;;-2.02;100.00
51928;BME280;37953;52.806;18.270;2022-12-18T05:20:51;102427.28;;;-2.05;100.00
51928;BME280;37953;52.806;18.270;2022-12-18T05:23:18;102428.03;;;-2.06;100.00
51928;BME280;37953;52.806;18.270;2022-12-18T05:25:55;102436.44;;;-2.07;100.00
51928;BME280;37953;52.806;18.270;2022-12-18T05:28:23;102434.50;;;-2.10;100.00
51928;BME280;37953;52.806;18.270;2022-12-18T05:30:56;102436.16;;;-2.10;100.00
51928;BME280;37953;52.806;18.270;2022-12-18T05:33:24;102450.41;;;-2.12;100.00
51928;BME280;37953;52.806;18.270;2022-12-18T05:35:59;102450.41;;;-2.12;100.00
51928;BME280;37953;52.806;18.270;2022-12-18T05:38:32;102471.66;;;-2.12;100.00
51928;BME280;37953;52.806;18.270;2022-12-18T05:40:58;102475.00;;;-2.13;100.00
51928;BME280;37953;52.806;18.270;2022-12-18T05:43:25;102480.88;;;-2.14;100.00
51928;BME280;37953;52.806;18.270;2022-12-18T05:45:57;102477.41;;;-2.14;100.00
51928;BME280;37953;52.806;18.270;2022-12-18T05:48:23;102474.75;;;-2.16;100.00
51928;BME280;37953;52.806;18.270;2022-12-18T05:50:50;102487.47;;;-2.16;100.00
51928;BME280;37953;52.806;18.270;2022-12-18T05:53:18;102480.44;;;-2.18;100.00
51928;BME280;37953;52.806;18.270;2022-12-18T05:55:51;102483.91;;;-2.18;100.00
51928;BME280;37953;52.806;18.270;2022-12-18T05:58:17;102493.94;;;-2.19;100.00
51928;BME280;37953;52.806;18.270;2022-12-18T06:00:45;102490.38;;;-2.21;100.00
51928;BME280;37953;52.806;18.270;2022-12-18T06:03:12;102495.31;;;-2.23;100.00
51928;BME280;37953;52.806;18.270;2022-12-18T06:05:41;102506.28;;;-2.24;100.00
51928;BME280;37953;52.806;18.270;2022-12-18T06:08:08;102505.50;;;-2.23;100.00
51928;BME280;37953;52.806;18.270;2022-12-18T06:10:34;102509.72;;;-2.23;100.00
51928;BME280;37953;52.806;18.270;2022-12-18T06:13:01;102507.91;;;-2.25;100.00
51928;BME280;37953;52.806;18.270;2022-12-18T06:15:27;102511.22;;;-2.26;100.00
51928;BME280;37953;52.806;18.270;2022-12-18T06:17:53;102507.81;;;-2.26;100.00
51928;BME280;37953;52.806;18.270;2022-12-18T06:20:20;102515.44;;;-2.26;100.00
51928;BME280;37953;52.806;18.270;2022-12-18T06:22:46;102510.94;;;-2.29;100.00
51928;BME280;37953;52.806;18.270;2022-12-18T06:25:12;102511.56;;;-2.31;100.00
51928;BME280;37953;52.806;18.270;2022-12-18T06:27:44;102516.66;;;-2.31;100.00
51928;BME280;37953;52.806;18.270;2022-12-18T06:30:14;102531.06;;;-2.32;100.00
51928;BME280;37953;52.806;18.270;2022-12-18T06:32:40;102532.56;;;-2.34;100.00
51928;BME280;37953;52.806;18.270;2022-12-18T06:35:06;102535.75;;;-2.36;100.00
51928;BME280;37953;52.806;18.270;2022-12-18T06:37:32;102540.69;;;-2.38;100.00
51928;BME280;37953;52.806;18.270;2022-12-18T06:40:01;102551.66;;;-2.39;100.00
51928;BME280;37953;52.806;18.270;2022-12-18T06:42:28;102554.06;;;-2.40;100.00
51928;BME280;37953;52.806;18.270;2022-12-18T06:44:54;102548.81;;;-2.42;100.00
51928;BME280;37953;52.806;18.270;2022-12-18T06:47:20;102557.22;;;-2.43;100.00
51928;BME280;37953;52.806;18.270;2022-12-18T06:49:47;102556.19;;;-2.45;100.00
51928;BME280;37953;52.806;18.270;2022-12-18T06:52:13;102563.94;;;-2.43;100.00
51928;BME280;37953;52.806;18.270;2022-12-18T06:54:39;102568.44;;;-2.41;100.00
51928;BME280;37953;52.806;18.270;2022-12-18T06:57:05;102571.09;;;-2.39;100.00
51928;BME280;37953;52.806;18.270;2022-12-18T06:59:31;102578.72;;;-2.39;100.00
51928;BME280;37953;52.806;18.270;2022-12-18T07:01:57;102576.19;;;-2.39;100.00
51928;BME280;37953;52.806;18.270;2022-12-18T07:04:30;102586.50;;;-2.38;100.00
51928;BME280;37953;52.806;18.270;2022-12-18T07:06:56;102589.69;;;-2.40;100.00
51928;BME280;37953;52.806;18.270;2022-12-18T07:09:23;102591.06;;;-2.44;100.00
51928;BME280;37953;52.806;18.270;2022-12-18T07:11:50;102596.91;;;-2.45;100.00
51928;BME280;37953;52.806;18.270;2022-12-18T07:14:16;102603.53;;;-2.47;100.00
51928;BME280;37953;52.806;18.270;2022-12-18T07:16:42;102604.88;;;-2.51;100.00
51928;BME280;37953;52.806;18.270;2022-12-18T07:19:08;102608.78;;;-2.54;100.00
51928;BME280;37953;52.806;18.270;2022-12-18T07:21:34;102617.06;;;-2.57;100.00
51928;BME280;37953;52.806;18.270;2022-12-18T07:24:00;102616.78;;;-2.60;100.00
51928;BME280;37953;52.806;18.270;2022-12-18T07:26:26;102616.78;;;-2.60;100.00
51928;BME280;37953;52.806;18.270;2022-12-18T07:28:55;102614.09;;;-2.61;100.00
51928;BME280;37953;52.806;18.270;2022-12-18T07:31:23;102612.31;;;-2.62;100.00
51928;BME280;37953;52.806;18.270;2022-12-18T07:33:50;102615.47;;;-2.65;100.00
51928;BME280;37953;52.806;18.270;2022-12-18T07:36:17;102615.47;;;-2.65;100.00
51928;BME280;37953;52.806;18.270;2022-12-18T07:38:46;102616.50;;;-2.63;100.00
51928;BME280;37953;52.806;18.270;2022-12-18T07:41:13;102618.00;;;-2.65;100.00
51928;BME280;37953;52.806;18.270;2022-12-18T07:43:41;102628.97;;;-2.66;100.00
51928;BME280;37953;52.806;18.270;2022-12-18T07:46:08;102626.25;;;-2.68;100.00
51928;BME280;37953;52.806;18.270;2022-12-18T07:48:34;102628.66;;;-2.69;100.00
51928;BME280;37953;52.806;18.270;2022-12-18T07:51:03;102630.16;;;-2.71;100.00
51928;BME280;37953;52.806;18.270;2022-12-18T07:53:40;102635.13;;;-2.73;100.00
51928;BME280;37953;52.806;18.270;2022-12-18T07:56:09;102640.81;;;-2.75;100.00
51928;BME280;37953;52.806;18.270;2022-12-18T07:58:42;102643.25;;;-2.77;100.00
51928;BME280;37953;52.806;18.270;2022-12-18T08:01:11;102654.78;;;-2.80;100.00
51928;BME280;37953;52.806;18.270;2022-12-18T08:03:38;102653.00;;;-2.81;100.00
51928;BME280;37953;52.806;18.270;2022-12-18T08:06:10;102657.16;;;-2.82;100.00
51928;BME280;37953;52.806;18.270;2022-12-18T08:08:36;102653.00;;;-2.81;100.00
51928;BME280;37953;52.806;18.270;2022-12-18T08:11:03;102656.28;;;-2.82;100.00
51928;BME280;37953;52.806;18.270;2022-12-18T08:13:29;102648.50;;;-2.84;100.00
51928;BME280;37953;52.806;18.270;2022-12-18T08:15:57;102642.38;;;-2.86;100.00
51928;BME280;37953;52.806;18.270;2022-12-18T08:18:23;102652.72;;;-2.84;100.00
51928;BME280;37953;52.806;18.270;2022-12-18T08:20:49;102661.09;;;-2.85;100.00
51928;BME280;37953;52.806;18.270;2022-12-18T08:23:16;102666.66;;;-2.90;100.00
51928;BME280;37953;52.806;18.270;2022-12-18T08:25:48;102677.56;;;-2.91;100.00
51928;BME280;37953;52.806;18.270;2022-12-18T08:28:16;102685.97;;;-2.92;100.00
51928;BME280;37953;52.806;18.270;2022-12-18T08:30:41;102679.84;;;-2.94;100.00
51928;BME280;37953;52.806;18.270;2022-12-18T08:33:08;102682.22;;;-2.95;100.00
51928;BME280;37953;52.806;18.270;2022-12-18T08:35:37;102691.53;;;-2.96;100.00
51928;BME280;37953;52.806;18.270;2022-12-18T08:38:03;102700.50;;;-2.99;100.00
51928;BME280;37953;52.806;18.270;2022-12-18T08:40:29;102699.63;;;-3.00;100.00
51928;BME280;37953;52.806;18.270;2022-12-18T08:42:55;102704.53;;;-3.01;100.00
51928;BME280;37953;52.806;18.270;2022-12-18T08:45:39;102706.94;;;-3.03;100.00
51928;BME280;37953;52.806;18.270;2022-12-18T08:48:06;102715.50;;;-3.02;100.00
51928;BME280;37953;52.806;18.270;2022-12-18T08:50:32;102722.06;;;-3.04;100.00
51928;BME280;37953;52.806;18.270;2022-12-18T08:52:58;102728.50;;;-3.08;100.00
51928;BME280;37953;52.806;18.270;2022-12-18T08:55:28;102722.66;;;-3.07;100.00
51928;BME280;37953;52.806;18.270;2022-12-18T08:57:54;102724.16;;;-3.09;100.00
51928;BME280;37953;52.806;18.270;2022-12-18T09:00:20;102730.00;;;-3.10;100.00
51928;BME280;37953;52.806;18.270;2022-12-18T09:02:50;102732.56;;;-3.10;100.00
51928;BME280;37953;52.806;18.270;2022-12-18T09:05:17;102731.66;;;-3.11;100.00
51928;BME280;37953;52.806;18.270;2022-12-18T09:07:43;102722.38;;;-3.10;100.00
51928;BME280;37953;52.806;18.270;2022-12-18T09:10:09;102715.38;;;-3.13;100.00
51928;BME280;37953;52.806;18.270;2022-12-18T09:12:35;102721.06;;;-3.15;100.00
51928;BME280;37953;52.806;18.270;2022-12-18T09:15:01;102714.19;;;-3.16;100.00
51928;BME280;37953;52.806;18.270;2022-12-18T09:17:27;102719.88;;;-3.19;100.00
51928;BME280;37953;52.806;18.270;2022-12-18T09:19:53;102716.44;;;-3.19;100.00
51928;BME280;37953;52.806;18.270;2022-12-18T09:22:19;102721.38;;;-3.21;100.00
51928;BME280;37953;52.806;18.270;2022-12-18T09:24:45;102717.03;;;-3.22;100.00
51928;BME280;37953;52.806;18.270;2022-12-18T09:27:11;102719.56;;;-3.22;100.00
51928;BME280;37953;52.806;18.270;2022-12-18T09:29:37;102717.78;;;-3.23;100.00
51928;BME280;37953;52.806;18.270;2022-12-18T09:32:04;102716.13;;;-3.22;100.00
51928;BME280;37953;52.806;18.270;2022-12-18T09:34:30;102719.56;;;-3.22;100.00
51928;BME280;37953;52.806;18.270;2022-12-18T09:36:56;102711.94;;;-3.22;100.00
51928;BME280;37953;52.806;18.270;2022-12-18T09:39:22;102705.09;;;-3.23;100.00
51928;BME280;37953;52.806;18.270;2022-12-18T09:41:52;102702.81;;;-3.20;100.00
51928;BME280;37953;52.806;18.270;2022-12-18T09:44:27;102702.97;;;-3.18;100.00
51928;BME280;37953;52.806;18.270;2022-12-18T09:47:13;102690.41;;;-3.17;100.00
51928;BME280;37953;52.806;18.270;2022-12-18T09:49:46;102691.16;;;-3.18;100.00
51928;BME280;37953;52.806;18.270;2022-12-18T09:52:35;102690.56;;;-3.15;100.00
51928;BME280;37953;52.806;18.270;2022-12-18T09:57:35;102689.78;;;-3.14;100.00
51928;BME280;37953;52.806;18.270;2022-12-18T10:00:19;102688.91;;;-3.15;100.00
51928;BME280;37953;52.806;18.270;2022-12-18T10:02:47;102696.22;;;-3.18;100.00
51928;BME280;37953;52.806;18.270;2022-12-18T10:08:18;102711.78;;;-3.15;100.00
51928;BME280;37953;52.806;18.270;2022-12-18T10:10:50;102707.31;;;-3.17;100.00
51928;BME280;37953;52.806;18.270;2022-12-18T10:19:25;102684.28;;;-3.19;100.00
51928;BME280;37953;52.806;18.270;2022-12-18T10:22:12;102695.19;;;-3.20;100.00
51928;BME280;37953;52.806;18.270;2022-12-18T10:27:17;102695.38;;;-3.27;100.00
51928;BME280;37953;52.806;18.270;2022-12-18T10:29:45;102704.50;;;-3.29;100.00
51928;BME280;37953;52.806;18.270;2022-12-18T10:32:18;102702.84;;;-3.29;100.00
51928;BME280;37953;52.806;18.270;2022-12-18T10:34:46;102707.94;;;-3.29;100.00
51928;BME280;37953;52.806;18.270;2022-12-18T10:37:21;102705.69;;;-3.25;100.00
51928;BME280;37953;52.806;18.270;2022-12-18T10:40:12;102703.28;;;-3.24;100.00
51928;BME280;37953;52.806;18.270;2022-12-18T10:42:44;102707.47;;;-3.24;100.00
51928;BME280;37953;52.806;18.270;2022-12-18T10:45:13;102705.69;;;-3.25;100.00
51928;BME280;37953;52.806;18.270;2022-12-18T10:47:45;102706.59;;;-3.25;100.00
51928;BME280;37953;52.806;18.270;2022-12-18T10:50:34;102701.66;;;-3.23;100.00
51928;BME280;37953;52.806;18.270;2022-12-18T10:53:03;102704.03;;;-3.25;100.00
51928;BME280;37953;52.806;18.270;2022-12-18T10:55:40;102713.44;;;-3.24;100.00
51928;BME280;37953;52.806;18.270;2022-12-18T11:03:44;102705.09;;;-3.23;100.00
51928;BME280;37953;52.806;18.270;2022-12-18T11:06:15;102713.91;;;-3.19;100.00
51928;BME280;37953;52.806;18.270;2022-12-18T11:08:43;102717.59;;;-3.16;100.00
51928;BME280;37953;52.806;18.270;2022-12-18T11:11:21;102717.03;;;-3.13;100.00
51928;BME280;37953;52.806;18.270;2022-12-18T11:14:03;102726.59;;;-3.11;100.00
51928;BME280;37953;52.806;18.270;2022-12-18T11:16:34;102732.56;;;-3.10;100.00
51928;BME280;37953;52.806;18.270;2022-12-18T11:19:37;102726.69;;;-3.09;100.00
51928;BME280;37953;52.806;18.270;2022-12-18T11:22:20;102728.50;;;-3.08;100.00
51928;BME280;37953;52.806;18.270;2022-12-18T11:24:59;102727.75;;;-3.07;100.00
51928;BME280;37953;52.806;18.270;2022-12-18T11:27:28;102730.44;;;-3.05;100.00
51928;BME280;37953;52.806;18.270;2022-12-18T11:36:01;102737.59;;;-3.01;100.00
51928;BME280;37953;52.806;18.270;2022-12-18T11:38:37;102731.63;;;-3.02;100.00
51928;BME280;37953;52.806;18.270;2022-12-18T11:41:32;102736.72;;;-3.02;100.00
51928;BME280;37953;52.806;18.270;2022-12-18T11:44:48;102739.25;;;-3.02;100.00
51928;BME280;37953;52.806;18.270;2022-12-18T11:47:27;102748.38;;;-3.04;100.00
51928;BME280;37953;52.806;18.270;2022-12-18T11:50:01;102744.97;;;-3.04;100.00
51928;BME280;37953;52.806;18.270;2022-12-18T11:52:38;102739.88;;;-3.04;100.00
51928;BME280;37953;52.806;18.270;2022-12-18T11:55:11;102741.50;;;-3.05;100.00
51928;BME280;37953;52.806;18.270;2022-12-18T11:57:50;102735.53;;;-3.05;100.00
51928;BME280;37953;52.806;18.270;2022-12-18T12:00:22;102739.56;;;-3.08;100.00
51928;BME280;37953;52.806;18.270;2022-12-18T12:14:28;102752.44;;;-3.06;100.00
51928;BME280;37953;52.806;18.270;2022-12-18T12:19:38;102750.34;;;-3.10;100.00
51928;BME280;37953;52.806;18.270;2022-12-18T12:22:36;102748.84;;;-3.08;100.00
51928;BME280;37953;52.806;18.270;2022-12-18T12:30:43;102738.69;;;-3.08;100.00
51928;BME280;37953;52.806;18.270;2022-12-18T12:33:44;102738.06;;;-3.05;100.00
51928;BME280;37953;52.806;18.270;2022-12-18T12:39:22;102751.66;;;-3.05;100.00
51928;BME280;37953;52.806;18.270;2022-12-18T12:41:48;102758.41;;;-3.05;100.00
51928;BME280;37953;52.806;18.270;2022-12-18T12:44:54;102767.06;;;-3.03;100.00
51928;BME280;37953;52.806;18.270;2022-12-18T12:47:27;102760.78;;;-3.07;100.00
51928;BME280;37953;52.806;18.270;2022-12-18T12:49:55;102766.66;;;-3.08;100.00
51928;BME280;37953;52.806;18.270;2022-12-18T12:52:43;102772.00;;;-3.05;100.00
51928;BME280;37953;52.806;18.270;2022-12-18T12:55:22;102772.94;;;-3.04;100.00
51928;BME280;37953;52.806;18.270;2022-12-18T13:00:55;102782.19;;;-3.05;100.00
51928;BME280;37953;52.806;18.270;2022-12-18T13:09:11;102798.34;;;-3.04;100.00
51928;BME280;37953;52.806;18.270;2022-12-18T13:11:42;102804.47;;;-3.02;100.00
51928;BME280;37953;52.806;18.270;2022-12-18T13:14:30;102798.63;;;-3.01;100.00
51928;BME280;37953;52.806;18.270;2022-12-18T13:19:51;102795.94;;;-3.03;100.00
51928;BME280;37953;52.806;18.270;2022-12-18T13:22:23;102795.94;;;-3.03;100.00
51928;BME280;37953;52.806;18.270;2022-12-18T13:24:50;102792.50;;;-3.03;100.00
51928;BME280;37953;52.806;18.270;2022-12-18T13:41:01;102792.53;;;-3.12;100.00
51928;BME280;37953;52.806;18.270;2022-12-18T13:43:39;102798.03;;;-3.08;100.00
51928;BME280;37953;52.806;18.270;2022-12-18T13:46:27;102791.31;;;-3.07;100.00
51928;BME280;37953;52.806;18.270;2022-12-18T13:49:18;102792.06;;;-3.08;100.00
51928;BME280;37953;52.806;18.270;2022-12-18T13:51:55;102781.91;;;-3.08;100.00
51928;BME280;37953;52.806;18.270;2022-12-18T13:54:45;102792.81;;;-3.09;100.00
51928;BME280;37953;52.806;18.270;2022-12-18T13:57:32;102789.53;;;-3.08;100.00
51928;BME280;37953;52.806;18.270;2022-12-18T14:02:49;102798.81;;;-3.09;100.00
51928;BME280;37953;52.806;18.270;2022-12-18T14:05:34;102799.84;;;-3.07;100.00
51928;BME280;37953;52.806;18.270;2022-12-18T14:08:06;102798.94;;;-3.07;100.00
51928;BME280;37953;52.806;18.270;2022-12-18T14:10:46;102811.66;;;-3.07;100.00
51928;BME280;37953;52.806;18.270;2022-12-18T14:13:26;102812.56;;;-3.07;100.00
51928;BME280;37953;52.806;18.270;2022-12-18T14:16:05;102814.19;;;-3.07;100.00
51928;BME280;37953;52.806;18.270;2022-12-18T14:18:46;102814.19;;;-3.07;100.00
51928;BME280;37953;52.806;18.270;2022-12-18T14:21:22;102814.19;;;-3.07;100.00
51928;BME280;37953;52.806;18.270;2022-12-18T14:24:13;102810.91;;;-3.06;100.00
51928;BME280;37953;52.806;18.270;2022-12-18T14:26:43;102809.72;;;-3.10;100.00
51928;BME280;37953;52.806;18.270;2022-12-18T14:29:27;102807.47;;;-3.07;100.00
51928;BME280;37953;52.806;18.270;2022-12-18T14:32:09;102804.03;;;-3.07;100.00
51928;BME280;37953;52.806;18.270;2022-12-18T14:34:36;102810.59;;;-3.09;100.00